sensor_id;sensor_type;location;lat;lon;timestamp;P1;durP1;ratioP1;P2;durP2;ratioP2
1062;SDS011;520;50.932;6.962;2024-01-30T00:00:17;10.63;;;9.50;;
1062;SDS011;520;50.932;6.962;2024-01-30T00:02:45;13.87;;;9.37;;
1062;SDS011;520;50.932;6.962;2024-01-30T00:05:12;10.77;;;7.80;;
1062;SDS011;520;50.932;6.962;2024-01-30T00:07:40;10.07;;;8.33;;
1062;SDS011;520;50.932;6.962;2024-01-30T00:10:09;8.50;;;7.60;;
1062;SDS011;520;50.932;6.962;2024-01-30T00:12:36;12.80;;;8.20;;
1062;SDS011;520;50.932;6.962;2024-01-30T00:15:05;10.13;;;8.40;;
1062;SDS011;520;50.932;6.962;2024-01-30T00:17:36;12.53;;;8.50;;
1062;SDS011;520;50.932;6.962;2024-01-30T00:20:04;10.17;;;9.07;;
1062;SDS011;520;50.932;6.962;2024-01-30T00:22:33;11.00;;;8.53;;
1062;SDS011;520;50.932;6.962;2024-01-30T00:25:00;12.40;;;9.07;;
1062;SDS011;520;50.932;6.962;2024-01-30T00:27:28;9.40;;;7.90;;
1062;SDS011;520;50.932;6.962;2024-01-30T00:29:55;9.30;;;8.37;;
1062;SDS011;520;50.932;6.962;2024-01-30T00:32:23;12.40;;;8.80;;
1062;SDS011;520;50.932;6.962;2024-01-30T00:34:52;10.27;;;8.10;;
1062;SDS011;520;50.932;6.962;2024-01-30T00:37:19;11.40;;;8.53;;
1062;SDS011;520;50.932;6.962;2024-01-30T00:39:47;8.63;;;7.73;;
1062;SDS011;520;50.932;6.962;2024-01-30T00:42:16;12.57;;;8.70;;
1062;SDS011;520;50.932;6.962;2024-01-30T00:44:43;8.83;;;7.83;;
1062;SDS011;520;50.932;6.962;2024-01-30T00:47:10;10.60;;;7.80;;
1062;SDS011;520;50.932;6.962;2024-01-30T00:49:37;10.80;;;9.70;;
1062;SDS011;520;50.932;6.962;2024-01-30T00:52:05;11.23;;;9.40;;
1062;SDS011;520;50.932;6.962;2024-01-30T00:54:33;9.40;;;8.40;;
1062;SDS011;520;50.932;6.962;2024-01-30T00:57:00;10.17;;;8.27;;
1062;SDS011;520;50.932;6.962;2024-01-30T00:59:28;9.23;;;8.10;;
1062;SDS011;520;50.932;6.962;2024-01-30T01:01:55;9.10;;;7.97;;
1062;SDS011;520;50.932;6.962;2024-01-30T01:04:25;8.30;;;7.47;;
1062;SDS011;520;50.932;6.962;2024-01-30T01:06:53;11.37;;;8.40;;
1062;SDS011;520;50.932;6.962;2024-01-30T01:09:21;10.70;;;8.03;;
1062;SDS011;520;50.932;6.962;2024-01-30T01:11:48;9.13;;;7.97;;
1062;SDS011;520;50.932;6.962;2024-01-30T01:14:15;9.70;;;8.50;;
1062;SDS011;520;50.932;6.962;2024-01-30T01:16:43;10.70;;;8.67;;
1062;SDS011;520;50.932;6.962;2024-01-30T01:19:14;9.37;;;8.37;;
1062;SDS011;520;50.932;6.962;2024-01-30T01:21:42;8.80;;;7.90;;
1062;SDS011;520;50.932;6.962;2024-01-30T01:24:12;10.30;;;8.77;;
1062;SDS011;520;50.932;6.962;2024-01-30T01:26:40;9.23;;;8.17;;
1062;SDS011;520;50.932;6.962;2024-01-30T01:29:07;13.93;;;9.63;;
1062;SDS011;520;50.932;6.962;2024-01-30T01:31:38;11.00;;;9.00;;
1062;SDS011;520;50.932;6.962;2024-01-30T01:34:10;13.80;;;8.47;;
1062;SDS011;520;50.932;6.962;2024-01-30T01:36:37;9.70;;;7.97;;
1062;SDS011;520;50.932;6.962;2024-01-30T01:39:05;10.30;;;7.90;;
1062;SDS011;520;50.932;6.962;2024-01-30T01:41:32;9.80;;;7.77;;
1062;SDS011;520;50.932;6.962;2024-01-30T01:43:59;10.23;;;7.87;;
1062;SDS011;520;50.932;6.962;2024-01-30T01:46:27;11.70;;;8.90;;
1062;SDS011;520;50.932;6.962;2024-01-30T01:48:57;9.70;;;7.70;;
1062;SDS011;520;50.932;6.962;2024-01-30T01:51:24;10.10;;;8.20;;
1062;SDS011;520;50.932;6.962;2024-01-30T01:53:53;13.73;;;8.27;;
1062;SDS011;520;50.932;6.962;2024-01-30T01:56:21;9.43;;;8.33;;
1062;SDS011;520;50.932;6.962;2024-01-30T01:58:49;13.20;;;7.90;;
1062;SDS011;520;50.932;6.962;2024-01-30T02:01:18;11.30;;;8.13;;
1062;SDS011;520;50.932;6.962;2024-01-30T02:03:46;8.30;;;7.43;;
1062;SDS011;520;50.932;6.962;2024-01-30T02:06:13;9.43;;;8.53;;
1062;SDS011;520;50.932;6.962;2024-01-30T02:08:41;9.23;;;8.20;;
1062;SDS011;520;50.932;6.962;2024-01-30T02:11:09;9.60;;;7.80;;
1062;SDS011;520;50.932;6.962;2024-01-30T02:13:36;12.63;;;8.50;;
1062;SDS011;520;50.932;6.962;2024-01-30T02:16:03;14.00;;;7.33;;
1062;SDS011;520;50.932;6.962;2024-01-30T02:18:31;9.03;;;7.77;;
1062;SDS011;520;50.932;6.962;2024-01-30T02:20:58;10.20;;;7.40;;
1062;SDS011;520;50.932;6.962;2024-01-30T02:23:30;10.50;;;7.60;;
1062;SDS011;520;50.932;6.962;2024-01-30T02:25:57;11.87;;;7.27;;
1062;SDS011;520;50.932;6.962;2024-01-30T02:28:24;12.07;;;8.23;;
1062;SDS011;520;50.932;6.962;2024-01-30T02:30:52;9.67;;;7.40;;
1062;SDS011;520;50.932;6.962;2024-01-30T02:33:19;9.97;;;8.07;;
1062;SDS011;520;50.932;6.962;2024-01-30T02:35:48;9.80;;;8.10;;
1062;SDS011;520;50.932;6.962;2024-01-30T02:38:15;9.17;;;6.87;;
1062;SDS011;520;50.932;6.962;2024-01-30T02:40:42;8.30;;;7.37;;
1062;SDS011;520;50.932;6.962;2024-01-30T02:43:10;13.63;;;8.20;;
1062;SDS011;520;50.932;6.962;2024-01-30T02:45:39;11.63;;;7.77;;
1062;SDS011;520;50.932;6.962;2024-01-30T02:48:07;13.13;;;8.37;;
1062;SDS011;520;50.932;6.962;2024-01-30T02:50:34;8.57;;;7.20;;
1062;SDS011;520;50.932;6.962;2024-01-30T02:53:02;8.83;;;7.33;;
1062;SDS011;520;50.932;6.962;2024-01-30T02:55:30;10.80;;;7.97;;
1062;SDS011;520;50.932;6.962;2024-01-30T02:57:57;9.47;;;7.77;;
1062;SDS011;520;50.932;6.962;2024-01-30T03:00:24;14.57;;;9.00;;
1062;SDS011;520;50.932;6.962;2024-01-30T03:02:51;8.73;;;6.87;;
1062;SDS011;520;50.932;6.962;2024-01-30T03:05:19;10.50;;;7.00;;
1062;SDS011;520;50.932;6.962;2024-01-30T03:07:46;7.77;;;6.80;;
1062;SDS011;520;50.932;6.962;2024-01-30T03:10:13;7.60;;;6.77;;
1062;SDS011;520;50.932;6.962;2024-01-30T03:12:40;11.53;;;8.53;;
1062;SDS011;520;50.932;6.962;2024-01-30T03:15:07;8.10;;;7.30;;
1062;SDS011;520;50.932;6.962;2024-01-30T03:17:36;10.47;;;7.13;;
1062;SDS011;520;50.932;6.962;2024-01-30T03:20:03;11.60;;;7.63;;
1062;SDS011;520;50.932;6.962;2024-01-30T03:22:32;10.47;;;7.63;;
1062;SDS011;520;50.932;6.962;2024-01-30T03:24:59;8.90;;;7.80;;
1062;SDS011;520;50.932;6.962;2024-01-30T03:27:26;9.20;;;7.60;;
1062;SDS011;520;50.932;6.962;2024-01-30T03:29:57;9.90;;;7.80;;
1062;SDS011;520;50.932;6.962;2024-01-30T03:32:24;14.43;;;8.27;;
1062;SDS011;520;50.932;6.962;2024-01-30T03:34:51;10.13;;;9.13;;
1062;SDS011;520;50.932;6.962;2024-01-30T03:37:19;9.30;;;7.53;;
1062;SDS011;520;50.932;6.962;2024-01-30T03:39:46;9.60;;;7.63;;
1062;SDS011;520;50.932;6.962;2024-01-30T03:42:13;12.33;;;9.00;;
1062;SDS011;520;50.932;6.962;2024-01-30T03:44:40;8.83;;;7.70;;
1062;SDS011;520;50.932;6.962;2024-01-30T03:47:07;8.93;;;7.83;;
1062;SDS011;520;50.932;6.962;2024-01-30T03:49:34;10.37;;;6.93;;
1062;SDS011;520;50.932;6.962;2024-01-30T03:52:02;9.67;;;8.20;;
1062;SDS011;520;50.932;6.962;2024-01-30T03:54:29;9.43;;;8.03;;
1062;SDS011;520;50.932;6.962;2024-01-30T03:56:56;10.80;;;7.50;;
1062;SDS011;520;50.932;6.962;2024-01-30T03:59:23;8.60;;;7.40;;
1062;SDS011;520;50.932;6.962;2024-01-30T04:01:50;7.90;;;6.87;;
1062;SDS011;520;50.932;6.962;2024-01-30T04:04:18;8.47;;;7.53;;
1062;SDS011;520;50.932;6.962;2024-01-30T04:06:45;8.70;;;7.20;;
1062;SDS011;520;50.932;6.962;2024-01-30T04:09:13;12.63;;;7.90;;
1062;SDS011;520;50.932;6.962;2024-01-30T04:11:41;7.93;;;7.03;;
1062;SDS011;520;50.932;6.962;2024-01-30T04:14:08;10.70;;;7.90;;
1062;SDS011;520;50.932;6.962;2024-01-30T04:16:35;12.13;;;9.23;;
1062;SDS011;520;50.932;6.962;2024-01-30T04:19:02;9.10;;;6.70;;
1062;SDS011;520;50.932;6.962;2024-01-30T04:21:29;10.90;;;7.63;;
1062;SDS011;520;50.932;6.962;2024-01-30T04:23:57;8.87;;;7.67;;
1062;SDS011;520;50.932;6.962;2024-01-30T04:26:24;11.00;;;8.40;;
1062;SDS011;520;50.932;6.962;2024-01-30T04:28:51;10.33;;;8.20;;
1062;SDS011;520;50.932;6.962;2024-01-30T04:31:18;15.97;;;8.50;;
1062;SDS011;520;50.932;6.962;2024-01-30T04:33:46;11.07;;;7.97;;
1062;SDS011;520;50.932;6.962;2024-01-30T04:36:13;10.07;;;7.67;;
1062;SDS011;520;50.932;6.962;2024-01-30T04:38:40;10.33;;;7.70;;
1062;SDS011;520;50.932;6.962;2024-01-30T04:41:08;10.50;;;8.07;;
1062;SDS011;520;50.932;6.962;2024-01-30T04:43:35;9.53;;;7.97;;
1062;SDS011;520;50.932;6.962;2024-01-30T04:46:02;7.10;;;6.40;;
1062;SDS011;520;50.932;6.962;2024-01-30T04:48:29;10.27;;;7.70;;
1062;SDS011;520;50.932;6.962;2024-01-30T04:50:56;9.30;;;7.70;;
1062;SDS011;520;50.932;6.962;2024-01-30T04:53:23;8.47;;;7.17;;
1062;SDS011;520;50.932;6.962;2024-01-30T04:55:51;8.90;;;7.77;;
1062;SDS011;520;50.932;6.962;2024-01-30T04:58:18;9.97;;;7.60;;
1062;SDS011;520;50.932;6.962;2024-01-30T05:00:45;11.07;;;7.10;;
1062;SDS011;520;50.932;6.962;2024-01-30T05:03:18;8.53;;;7.53;;
1062;SDS011;520;50.932;6.962;2024-01-30T05:05:46;6.97;;;6.27;;
1062;SDS011;520;50.932;6.962;2024-01-30T05:08:13;10.63;;;7.87;;
1062;SDS011;520;50.932;6.962;2024-01-30T05:10:40;7.17;;;6.47;;
1062;SDS011;520;50.932;6.962;2024-01-30T05:13:08;12.23;;;8.20;;
1062;SDS011;520;50.932;6.962;2024-01-30T05:15:35;9.10;;;7.50;;
1062;SDS011;520;50.932;6.962;2024-01-30T05:18:02;11.70;;;9.50;;
1062;SDS011;520;50.932;6.962;2024-01-30T05:20:29;11.10;;;8.27;;
1062;SDS011;520;50.932;6.962;2024-01-30T05:22:57;8.93;;;8.00;;
1062;SDS011;520;50.932;6.962;2024-01-30T05:25:24;10.53;;;9.27;;
1062;SDS011;520;50.932;6.962;2024-01-30T05:27:51;11.53;;;8.17;;
1062;SDS011;520;50.932;6.962;2024-01-30T05:30:18;9.53;;;6.83;;
1062;SDS011;520;50.932;6.962;2024-01-30T05:32:45;10.70;;;7.10;;
1062;SDS011;520;50.932;6.962;2024-01-30T05:35:13;10.27;;;7.50;;
1062;SDS011;520;50.932;6.962;2024-01-30T05:37:40;8.17;;;7.30;;
1062;SDS011;520;50.932;6.962;2024-01-30T05:40:07;9.20;;;7.90;;
1062;SDS011;520;50.932;6.962;2024-01-30T05:42:34;9.63;;;7.70;;
1062;SDS011;520;50.932;6.962;2024-01-30T05:45:02;8.90;;;8.00;;
1062;SDS011;520;50.932;6.962;2024-01-30T05:47:29;10.43;;;8.07;;
1062;SDS011;520;50.932;6.962;2024-01-30T05:49:56;11.07;;;8.63;;
1062;SDS011;520;50.932;6.962;2024-01-30T05:52:23;9.77;;;7.97;;
1062;SDS011;520;50.932;6.962;2024-01-30T05:54:51;8.80;;;7.60;;
1062;SDS011;520;50.932;6.962;2024-01-30T05:57:18;10.00;;;8.10;;
1062;SDS011;520;50.932;6.962;2024-01-30T05:59:45;12.77;;;7.93;;
1062;SDS011;520;50.932;6.962;2024-01-30T06:02:13;9.97;;;8.00;;
1062;SDS011;520;50.932;6.962;2024-01-30T06:04:41;9.90;;;7.80;;
1062;SDS011;520;50.932;6.962;2024-01-30T06:07:10;10.20;;;7.93;;
1062;SDS011;520;50.932;6.962;2024-01-30T06:09:43;10.40;;;6.83;;
1062;SDS011;520;50.932;6.962;2024-01-30T06:12:14;10.93;;;7.90;;
1062;SDS011;520;50.932;6.962;2024-01-30T06:14:42;9.87;;;8.13;;
1062;SDS011;520;50.932;6.962;2024-01-30T06:17:12;10.03;;;7.87;;
1062;SDS011;520;50.932;6.962;2024-01-30T06:19:40;8.20;;;7.40;;
1062;SDS011;520;50.932;6.962;2024-01-30T06:22:08;10.13;;;8.83;;
1062;SDS011;520;50.932;6.962;2024-01-30T06:24:37;11.00;;;8.00;;
1062;SDS011;520;50.932;6.962;2024-01-30T06:27:04;9.23;;;8.23;;
1062;SDS011;520;50.932;6.962;2024-01-30T06:29:33;10.37;;;7.93;;
1062;SDS011;520;50.932;6.962;2024-01-30T06:32:01;11.13;;;8.50;;
1062;SDS011;520;50.932;6.962;2024-01-30T06:34:28;11.20;;;7.70;;
1062;SDS011;520;50.932;6.962;2024-01-30T06:37:00;12.87;;;8.93;;
1062;SDS011;520;50.932;6.962;2024-01-30T06:39:27;9.53;;;7.80;;
1062;SDS011;520;50.932;6.962;2024-01-30T06:41:58;12.80;;;7.63;;
1062;SDS011;520;50.932;6.962;2024-01-30T06:44:25;10.47;;;8.67;;
1062;SDS011;520;50.932;6.962;2024-01-30T06:46:54;9.07;;;8.17;;
1062;SDS011;520;50.932;6.962;2024-01-30T06:49:21;10.33;;;8.93;;
1062;SDS011;520;50.932;6.962;2024-01-30T06:51:48;10.30;;;7.93;;
1062;SDS011;520;50.932;6.962;2024-01-30T06:54:16;11.53;;;9.17;;
1062;SDS011;520;50.932;6.962;2024-01-30T06:56:43;10.13;;;8.50;;
1062;SDS011;520;50.932;6.962;2024-01-30T06:59:10;10.20;;;8.53;;
1062;SDS011;520;50.932;6.962;2024-01-30T07:01:37;8.93;;;8.03;;
1062;SDS011;520;50.932;6.962;2024-01-30T07:04:04;8.87;;;7.97;;
1062;SDS011;520;50.932;6.962;2024-01-30T07:06:32;9.90;;;7.80;;
1062;SDS011;520;50.932;6.962;2024-01-30T07:09:00;11.10;;;9.33;;
1062;SDS011;520;50.932;6.962;2024-01-30T07:11:28;10.13;;;5.90;;
1062;SDS011;520;50.932;6.962;2024-01-30T07:13:55;7.80;;;7.00;;
1062;SDS011;520;50.932;6.962;2024-01-30T07:16:22;10.87;;;7.47;;
1062;SDS011;520;50.932;6.962;2024-01-30T07:18:49;11.90;;;8.03;;
1062;SDS011;520;50.932;6.962;2024-01-30T07:21:17;8.83;;;7.53;;
1062;SDS011;520;50.932;6.962;2024-01-30T07:23:44;8.73;;;7.23;;
1062;SDS011;520;50.932;6.962;2024-01-30T07:26:12;10.53;;;7.57;;
1062;SDS011;520;50.932;6.962;2024-01-30T07:28:39;12.70;;;7.70;;
1062;SDS011;520;50.932;6.962;2024-01-30T07:31:08;9.53;;;7.80;;
1062;SDS011;520;50.932;6.962;2024-01-30T07:33:45;9.40;;;7.67;;
1062;SDS011;520;50.932;6.962;2024-01-30T07:40:02;10.70;;;7.67;;
1062;SDS011;520;50.932;6.962;2024-01-30T07:42:30;9.70;;;8.10;;
1062;SDS011;520;50.932;6.962;2024-01-30T07:45:41;14.83;;;6.97;;
1062;SDS011;520;50.932;6.962;2024-01-30T07:48:16;10.40;;;7.70;;
1062;SDS011;520;50.932;6.962;2024-01-30T07:50:44;8.47;;;7.60;;
1062;SDS011;520;50.932;6.962;2024-01-30T07:53:13;14.70;;;8.80;;
1062;SDS011;520;50.932;6.962;2024-01-30T07:55:41;11.30;;;7.90;;
1062;SDS011;520;50.932;6.962;2024-01-30T07:58:10;10.50;;;8.17;;
1062;SDS011;520;50.932;6.962;2024-01-30T08:00:37;10.00;;;7.20;;
1062;SDS011;520;50.932;6.962;2024-01-30T08:03:04;8.87;;;7.47;;
1062;SDS011;520;50.932;6.962;2024-01-30T08:05:34;10.30;;;8.23;;
1062;SDS011;520;50.932;6.962;2024-01-30T08:08:01;8.27;;;7.47;;
1062;SDS011;520;50.932;6.962;2024-01-30T08:10:28;9.90;;;7.10;;
1062;SDS011;520;50.932;6.962;2024-01-30T08:12:56;10.60;;;8.67;;
1062;SDS011;520;50.932;6.962;2024-01-30T08:15:23;10.20;;;7.60;;
1062;SDS011;520;50.932;6.962;2024-01-30T08:17:50;10.90;;;7.67;;
1062;SDS011;520;50.932;6.962;2024-01-30T08:20:22;12.87;;;7.70;;
1062;SDS011;520;50.932;6.962;2024-01-30T08:22:49;9.00;;;7.30;;
1062;SDS011;520;50.932;6.962;2024-01-30T08:25:16;9.60;;;6.70;;
1062;SDS011;520;50.932;6.962;2024-01-30T08:27:44;15.33;;;8.00;;
1062;SDS011;520;50.932;6.962;2024-01-30T08:30:11;10.90;;;8.83;;
1062;SDS011;520;50.932;6.962;2024-01-30T08:32:39;12.60;;;8.20;;
1062;SDS011;520;50.932;6.962;2024-01-30T08:35:06;9.20;;;6.93;;
1062;SDS011;520;50.932;6.962;2024-01-30T08:37:43;9.77;;;6.73;;
1062;SDS011;520;50.932;6.962;2024-01-30T08:40:46;8.03;;;7.20;;
1062;SDS011;520;50.932;6.962;2024-01-30T08:43:20;7.93;;;6.80;;
1062;SDS011;520;50.932;6.962;2024-01-30T08:45:50;9.70;;;6.83;;
1062;SDS011;520;50.932;6.962;2024-01-30T08:48:17;11.63;;;7.73;;
1062;SDS011;520;50.932;6.962;2024-01-30T08:50:45;14.30;;;7.80;;
1062;SDS011;520;50.932;6.962;2024-01-30T08:53:53;8.33;;;7.30;;
1062;SDS011;520;50.932;6.962;2024-01-30T08:56:34;9.40;;;8.03;;
1062;SDS011;520;50.932;6.962;2024-01-30T08:59:06;8.80;;;6.67;;
1062;SDS011;520;50.932;6.962;2024-01-30T09:01:51;8.37;;;7.10;;
1062;SDS011;520;50.932;6.962;2024-01-30T09:04:25;8.00;;;7.07;;
1062;SDS011;520;50.932;6.962;2024-01-30T09:06:53;11.03;;;8.00;;
1062;SDS011;520;50.932;6.962;2024-01-30T09:09:21;9.40;;;8.03;;
1062;SDS011;520;50.932;6.962;2024-01-30T09:11:54;9.63;;;7.47;;
1062;SDS011;520;50.932;6.962;2024-01-30T09:14:38;11.70;;;9.10;;
1062;SDS011;520;50.932;6.962;2024-01-30T09:17:06;10.37;;;7.80;;
1062;SDS011;520;50.932;6.962;2024-01-30T09:19:46;8.67;;;7.70;;
1062;SDS011;520;50.932;6.962;2024-01-30T09:22:23;10.40;;;8.87;;
1062;SDS011;520;50.932;6.962;2024-01-30T09:24:56;11.00;;;7.97;;
1062;SDS011;520;50.932;6.962;2024-01-30T09:27:48;10.00;;;8.40;;
1062;SDS011;520;50.932;6.962;2024-01-30T09:30:34;8.67;;;7.30;;
1062;SDS011;520;50.932;6.962;2024-01-30T09:33:01;16.60;;;8.33;;
1062;SDS011;520;50.932;6.962;2024-01-30T09:35:34;9.83;;;7.57;;
1062;SDS011;520;50.932;6.962;2024-01-30T09:38:22;9.80;;;8.30;;
1062;SDS011;520;50.932;6.962;2024-01-30T09:40:54;9.53;;;7.53;;
1062;SDS011;520;50.932;6.962;2024-01-30T09:43:23;9.80;;;8.27;;
1062;SDS011;520;50.932;6.962;2024-01-30T09:45:52;9.53;;;7.60;;
1062;SDS011;520;50.932;6.962;2024-01-30T09:48:23;11.50;;;7.70;;
1062;SDS011;520;50.932;6.962;2024-01-30T09:50:50;12.10;;;7.77;;
1062;SDS011;520;50.932;6.962;2024-01-30T09:53:18;10.37;;;7.17;;
1062;SDS011;520;50.932;6.962;2024-01-30T09:55:46;9.73;;;7.33;;
1062;SDS011;520;50.932;6.962;2024-01-30T09:58:14;9.50;;;7.03;;
1062;SDS011;520;50.932;6.962;2024-01-30T10:00:47;8.87;;;7.83;;
1062;SDS011;520;50.932;6.962;2024-01-30T10:03:14;8.20;;;7.17;;
1062;SDS011;520;50.932;6.962;2024-01-30T10:05:42;10.30;;;7.90;;
1062;SDS011;520;50.932;6.962;2024-01-30T10:08:12;9.80;;;7.83;;
1062;SDS011;520;50.932;6.962;2024-01-30T10:10:39;12.57;;;7.47;;
1062;SDS011;520;50.932;6.962;2024-01-30T10:13:06;9.90;;;7.17;;
1062;SDS011;520;50.932;6.962;2024-01-30T10:15:33;7.57;;;6.77;;
1062;SDS011;520;50.932;6.962;2024-01-30T10:18:01;13.43;;;8.20;;
1062;SDS011;520;50.932;6.962;2024-01-30T10:20:29;11.00;;;7.60;;
1062;SDS011;520;50.932;6.962;2024-01-30T10:22:56;12.10;;;7.53;;
1062;SDS011;520;50.932;6.962;2024-01-30T10:25:23;10.00;;;7.70;;
1062;SDS011;520;50.932;6.962;2024-01-30T10:27:55;11.37;;;8.37;;
1062;SDS011;520;50.932;6.962;2024-01-30T10:30:26;9.30;;;6.80;;
1062;SDS011;520;50.932;6.962;2024-01-30T10:32:54;8.40;;;7.30;;
1062;SDS011;520;50.932;6.962;2024-01-30T10:35:21;11.10;;;6.80;;
1062;SDS011;520;50.932;6.962;2024-01-30T10:37:48;10.53;;;7.80;;
1062;SDS011;520;50.932;6.962;2024-01-30T10:40:16;12.33;;;7.97;;
1062;SDS011;520;50.932;6.962;2024-01-30T10:42:43;10.00;;;7.70;;
1062;SDS011;520;50.932;6.962;2024-01-30T10:45:11;8.33;;;7.10;;
1062;SDS011;520;50.932;6.962;2024-01-30T10:47:39;10.40;;;7.93;;
1062;SDS011;520;50.932;6.962;2024-01-30T10:50:08;8.70;;;7.33;;
1062;SDS011;520;50.932;6.962;2024-01-30T10:52:37;7.80;;;6.70;;
1062;SDS011;520;50.932;6.962;2024-01-30T10:55:10;8.93;;;7.43;;
1062;SDS011;520;50.932;6.962;2024-01-30T10:57:42;9.47;;;8.00;;
1062;SDS011;520;50.932;6.962;2024-01-30T11:00:13;8.70;;;7.77;;
1062;SDS011;520;50.932;6.962;2024-01-30T11:02:43;9.13;;;6.80;;
1062;SDS011;520;50.932;6.962;2024-01-30T11:05:12;9.90;;;7.33;;
1062;SDS011;520;50.932;6.962;2024-01-30T11:07:44;9.07;;;7.30;;
1062;SDS011;520;50.932;6.962;2024-01-30T11:10:12;10.33;;;7.77;;
1062;SDS011;520;50.932;6.962;2024-01-30T11:12:41;11.37;;;7.67;;
1062;SDS011;520;50.932;6.962;2024-01-30T11:15:13;8.87;;;7.17;;
1062;SDS011;520;50.932;6.962;2024-01-30T11:17:44;11.23;;;7.33;;
1062;SDS011;520;50.932;6.962;2024-01-30T11:20:16;12.40;;;8.07;;
1062;SDS011;520;50.932;6.962;2024-01-30T11:22:46;8.20;;;7.33;;
1062;SDS011;520;50.932;6.962;2024-01-30T11:25:14;9.50;;;6.50;;
1062;SDS011;520;50.932;6.962;2024-01-30T11:27:45;11.40;;;7.03;;
1062;SDS011;520;50.932;6.962;2024-01-30T11:32:59;11.03;;;8.03;;
1062;SDS011;520;50.932;6.962;2024-01-30T11:35:26;9.43;;;6.57;;
1062;SDS011;520;50.932;6.962;2024-01-30T11:38:00;10.70;;;7.30;;
1062;SDS011;520;50.932;6.962;2024-01-30T11:40:28;9.40;;;6.80;;
1062;SDS011;520;50.932;6.962;2024-01-30T11:43:00;7.70;;;6.97;;
1062;SDS011;520;50.932;6.962;2024-01-30T11:45:28;11.10;;;6.80;;
1062;SDS011;520;50.932;6.962;2024-01-30T11:47:58;10.20;;;7.27;;
1062;SDS011;520;50.932;6.962;2024-01-30T11:50:31;8.57;;;7.30;;
1062;SDS011;520;50.932;6.962;2024-01-30T11:53:01;7.37;;;5.97;;
1062;SDS011;520;50.932;6.962;2024-01-30T11:55:29;9.33;;;6.87;;
1062;SDS011;520;50.932;6.962;2024-01-30T11:57:59;14.73;;;7.73;;
1062;SDS011;520;50.932;6.962;2024-01-30T12:00:26;6.83;;;6.13;;
1062;SDS011;520;50.932;6.962;2024-01-30T12:03:00;10.60;;;7.23;;
1062;SDS011;520;50.932;6.962;2024-01-30T12:05:30;8.80;;;7.10;;
1062;SDS011;520;50.932;6.962;2024-01-30T12:07:58;10.23;;;7.33;;
1062;SDS011;520;50.932;6.962;2024-01-30T12:10:26;7.90;;;6.20;;
1062;SDS011;520;50.932;6.962;2024-01-30T12:13:02;10.20;;;6.90;;
1062;SDS011;520;50.932;6.962;2024-01-30T12:15:31;8.40;;;6.43;;
1062;SDS011;520;50.932;6.962;2024-01-30T12:21:11;9.03;;;7.13;;
1062;SDS011;520;50.932;6.962;2024-01-30T12:23:45;9.50;;;6.10;;
1062;SDS011;520;50.932;6.962;2024-01-30T12:26:20;10.50;;;7.10;;
1062;SDS011;520;50.932;6.962;2024-01-30T12:28:57;7.00;;;6.23;;
1062;SDS011;520;50.932;6.962;2024-01-30T12:31:28;7.80;;;7.00;;
1062;SDS011;520;50.932;6.962;2024-01-30T12:34:01;9.07;;;6.57;;
1062;SDS011;520;50.932;6.962;2024-01-30T12:41:49;6.57;;;5.90;;
1062;SDS011;520;50.932;6.962;2024-01-30T12:47:21;8.30;;;6.33;;
1062;SDS011;520;50.932;6.962;2024-01-30T12:49:50;8.17;;;6.77;;
1062;SDS011;520;50.932;6.962;2024-01-30T12:52:24;12.90;;;6.93;;
1062;SDS011;520;50.932;6.962;2024-01-30T12:54:52;10.00;;;5.93;;
1062;SDS011;520;50.932;6.962;2024-01-30T12:57:19;8.30;;;6.33;;
1062;SDS011;520;50.932;6.962;2024-01-30T12:59:50;7.23;;;6.47;;
1062;SDS011;520;50.932;6.962;2024-01-30T13:02:18;12.70;;;7.43;;
1062;SDS011;520;50.932;6.962;2024-01-30T13:04:49;8.50;;;6.37;;
1062;SDS011;520;50.932;6.962;2024-01-30T13:07:17;13.47;;;7.27;;
1062;SDS011;520;50.932;6.962;2024-01-30T13:09:46;8.93;;;6.50;;
1062;SDS011;520;50.932;6.962;2024-01-30T13:12:14;6.43;;;5.47;;
1062;SDS011;520;50.932;6.962;2024-01-30T13:14:41;10.33;;;6.37;;
1062;SDS011;520;50.932;6.962;2024-01-30T13:17:10;9.73;;;7.20;;
1062;SDS011;520;50.932;6.962;2024-01-30T13:19:38;10.47;;;7.20;;
1062;SDS011;520;50.932;6.962;2024-01-30T13:22:17;7.97;;;6.90;;
1062;SDS011;520;50.932;6.962;2024-01-30T13:24:47;9.63;;;6.23;;
1062;SDS011;520;50.932;6.962;2024-01-30T13:27:15;10.47;;;7.53;;
1062;SDS011;520;50.932;6.962;2024-01-30T13:29:43;9.97;;;6.13;;
1062;SDS011;520;50.932;6.962;2024-01-30T13:32:13;8.80;;;6.93;;
1062;SDS011;520;50.932;6.962;2024-01-30T13:34:42;9.03;;;7.50;;
1062;SDS011;520;50.932;6.962;2024-01-30T13:37:36;9.50;;;7.60;;
1062;SDS011;520;50.932;6.962;2024-01-30T13:40:06;11.97;;;7.87;;
1062;SDS011;520;50.932;6.962;2024-01-30T13:42:40;8.73;;;6.70;;
1062;SDS011;520;50.932;6.962;2024-01-30T13:45:10;8.93;;;7.13;;
1062;SDS011;520;50.932;6.962;2024-01-30T13:47:45;6.87;;;5.17;;
1062;SDS011;520;50.932;6.962;2024-01-30T13:50:38;6.60;;;4.73;;
1062;SDS011;520;50.932;6.962;2024-01-30T13:53:46;8.50;;;4.80;;
1062;SDS011;520;50.932;6.962;2024-01-30T13:56:46;5.17;;;4.30;;
1062;SDS011;520;50.932;6.962;2024-01-30T13:59:24;6.07;;;4.03;;
1062;SDS011;520;50.932;6.962;2024-01-30T14:01:56;5.00;;;3.77;;
1062;SDS011;520;50.932;6.962;2024-01-30T14:04:39;5.03;;;4.30;;
1062;SDS011;520;50.932;6.962;2024-01-30T14:10:49;6.43;;;4.03;;
1062;SDS011;520;50.932;6.962;2024-01-30T14:13:49;6.80;;;4.43;;
1062;SDS011;520;50.932;6.962;2024-01-30T14:16:34;7.47;;;4.33;;
1062;SDS011;520;50.932;6.962;2024-01-30T14:19:06;5.30;;;4.17;;
1062;SDS011;520;50.932;6.962;2024-01-30T14:21:38;9.40;;;3.90;;
1062;SDS011;520;50.932;6.962;2024-01-30T14:24:10;4.77;;;4.30;;
1062;SDS011;520;50.932;6.962;2024-01-30T14:26:40;9.20;;;4.40;;
1062;SDS011;520;50.932;6.962;2024-01-30T14:29:13;6.70;;;4.03;;
1062;SDS011;520;50.932;6.962;2024-01-30T14:31:42;5.67;;;4.27;;
1062;SDS011;520;50.932;6.962;2024-01-30T14:34:10;7.03;;;5.70;;
1062;SDS011;520;50.932;6.962;2024-01-30T14:36:48;5.63;;;4.73;;
1062;SDS011;520;50.932;6.962;2024-01-30T14:39:18;6.13;;;4.43;;
1062;SDS011;520;50.932;6.962;2024-01-30T14:41:45;7.73;;;5.27;;
1062;SDS011;520;50.932;6.962;2024-01-30T14:44:22;7.30;;;4.67;;
1062;SDS011;520;50.932;6.962;2024-01-30T14:46:55;7.03;;;4.40;;
1062;SDS011;520;50.932;6.962;2024-01-30T14:49:22;9.07;;;5.67;;
1062;SDS011;520;50.932;6.962;2024-01-30T14:52:02;8.00;;;5.07;;
1062;SDS011;520;50.932;6.962;2024-01-30T14:54:33;6.70;;;5.20;;
1062;SDS011;520;50.932;6.962;2024-01-30T14:57:02;6.77;;;4.40;;
1062;SDS011;520;50.932;6.962;2024-01-30T14:59:33;10.23;;;5.00;;
1062;SDS011;520;50.932;6.962;2024-01-30T15:02:10;8.57;;;5.70;;
1062;SDS011;520;50.932;6.962;2024-01-30T15:04:39;7.47;;;4.53;;
1062;SDS011;520;50.932;6.962;2024-01-30T15:07:09;6.23;;;5.10;;
1062;SDS011;520;50.932;6.962;2024-01-30T15:09:37;7.47;;;4.70;;
1062;SDS011;520;50.932;6.962;2024-01-30T15:12:05;8.07;;;5.60;;
1062;SDS011;520;50.932;6.962;2024-01-30T15:14:32;7.97;;;5.53;;
1062;SDS011;520;50.932;6.962;2024-01-30T15:17:05;6.43;;;5.03;;
1062;SDS011;520;50.932;6.962;2024-01-30T15:19:32;5.93;;;4.43;;
1062;SDS011;520;50.932;6.962;2024-01-30T15:22:04;8.27;;;4.80;;
1062;SDS011;520;50.932;6.962;2024-01-30T15:24:31;6.10;;;4.77;;
1062;SDS011;520;50.932;6.962;2024-01-30T15:26:58;4.67;;;4.20;;
1062;SDS011;520;50.932;6.962;2024-01-30T15:29:26;5.30;;;4.03;;
1062;SDS011;520;50.932;6.962;2024-01-30T15:31:58;7.93;;;5.00;;
1062;SDS011;520;50.932;6.962;2024-01-30T15:34:25;8.00;;;4.60;;
1062;SDS011;520;50.932;6.962;2024-01-30T15:36:54;7.77;;;4.67;;
1062;SDS011;520;50.932;6.962;2024-01-30T15:39:21;5.43;;;4.87;;
1062;SDS011;520;50.932;6.962;2024-01-30T15:41:52;7.10;;;4.40;;
1062;SDS011;520;50.932;6.962;2024-01-30T15:44:22;7.13;;;5.00;;
1062;SDS011;520;50.932;6.962;2024-01-30T15:46:50;5.77;;;5.10;;
1062;SDS011;520;50.932;6.962;2024-01-30T15:49:18;9.27;;;5.73;;
1062;SDS011;520;50.932;6.962;2024-01-30T15:51:47;5.73;;;4.80;;
1062;SDS011;520;50.932;6.962;2024-01-30T15:54:15;7.10;;;5.20;;
1062;SDS011;520;50.932;6.962;2024-01-30T15:56:46;5.90;;;5.30;;
1062;SDS011;520;50.932;6.962;2024-01-30T15:59:15;8.17;;;5.27;;
1062;SDS011;520;50.932;6.962;2024-01-30T16:01:54;8.40;;;5.43;;